sensor_id;sensor_type;location;lat;lon;timestamp;pressure;altitude;pressure_sealevel;temperature;humidity
49545;BME280;74870;42.636;23.302;2024-03-02T00:02:23;92549.34;;;7.19;nan
49545;BME280;74870;42.636;23.302;2024-03-02T00:04:49;92558.44;;;7.22;nan
49545;BME280;74870;42.636;23.302;2024-03-02T00:07:14;92558.59;;;7.30;nan
49545;BME280;74870;42.636;23.302;2024-03-02T00:09:40;92561.84;;;7.22;nan
49545;BME280;74870;42.636;23.302;2024-03-02T00:12:06;92557.41;;;7.23;nan
49545;BME280;74870;42.636;23.302;2024-03-02T00:14:31;92548.50;;;7.24;nan
49545;BME280;74870;42.636;23.302;2024-03-02T00:16:57;92557.66;;;7.21;nan
49545;BME280;74870;42.636;23.302;2024-03-02T00:19:23;92564.50;;;7.17;nan
49545;BME280;74870;42.636;23.302;2024-03-02T00:21:48;92565.78;;;7.20;nan
49545;BME280;74870;42.636;23.302;2024-03-02T00:24:23;92563.63;;;7.27;nan
49545;BME280;74870;42.636;23.302;2024-03-02T00:26:51;92563.97;;;7.39;nan
49545;BME280;74870;42.636;23.302;2024-03-02T00:29:17;92572.13;;;7.51;nan
49545;BME280;74870;42.636;23.302;2024-03-02T00:31:44;92570.50;;;7.55;nan
49545;BME280;74870;42.636;23.302;2024-03-02T00:34:12;92553.31;;;7.68;nan
49545;BME280;74870;42.636;23.302;2024-03-02T00:36:38;92564.84;;;7.67;nan
49545;BME280;74870;42.636;23.302;2024-03-02T00:39:04;92561.50;;;7.80;nan
49545;BME280;74870;42.636;23.302;2024-03-02T00:41:33;92541.31;;;7.67;nan
49545;BME280;74870;42.636;23.302;2024-03-02T00:44:05;92554.94;;;7.63;nan
49545;BME280;74870;42.636;23.302;2024-03-02T00:46:38;92555.56;;;7.74;nan
49545;BME280;74870;42.636;23.302;2024-03-02T00:51:36;92545.06;;;7.93;nan
49545;BME280;74870;42.636;23.302;2024-03-02T00:54:04;92545.44;;;7.86;nan
49545;BME280;74870;42.636;23.302;2024-03-02T00:56:30;92549.31;;;7.89;nan
49545;BME280;74870;42.636;23.302;2024-03-02T00:58:57;92554.97;;;7.96;nan
49545;BME280;74870;42.636;23.302;2024-03-02T01:01:23;92552.34;;;7.96;nan
49545;BME280;74870;42.636;23.302;2024-03-02T01:03:48;92548.59;;;8.02;nan
49545;BME280;74870;42.636;23.302;2024-03-02T01:06:15;92558.44;;;8.05;nan
49545;BME280;74870;42.636;23.302;2024-03-02T01:08:41;92551.56;;;8.09;nan
49545;BME280;74870;42.636;23.302;2024-03-02T01:11:06;92532.13;;;8.01;nan
49545;BME280;74870;42.636;23.302;2024-03-02T01:13:32;92523.00;;;8.12;nan
49545;BME280;74870;42.636;23.302;2024-03-02T01:15:58;92548.63;;;8.29;nan
49545;BME280;74870;42.636;23.302;2024-03-02T01:18:24;92538.34;;;8.32;nan
49545;BME280;74870;42.636;23.302;2024-03-02T01:20:49;92542.44;;;8.38;nan
49545;BME280;74870;42.636;23.302;2024-03-02T01:23:21;92538.56;;;8.36;nan
49545;BME280;74870;42.636;23.302;2024-03-02T01:25:47;92509.09;;;8.30;nan
49545;BME280;74870;42.636;23.302;2024-03-02T01:28:13;92535.06;;;8.40;nan
49545;BME280;74870;42.636;23.302;2024-03-02T01:30:38;92531.88;;;8.43;nan
49545;BME280;74870;42.636;23.302;2024-03-02T01:33:04;92529.47;;;8.33;nan
49545;BME280;74870;42.636;23.302;2024-03-02T01:35:31;92535.38;;;8.39;nan
49545;BME280;74870;42.636;23.302;2024-03-02T01:37:56;92512.97;;;8.19;nan
49545;BME280;74870;42.636;23.302;2024-03-02T01:40:22;92536.34;;;8.29;nan
49545;BME280;74870;42.636;23.302;2024-03-02T01:42:51;92536.34;;;8.29;nan
49545;BME280;74870;42.636;23.302;2024-03-02T01:45:17;92519.88;;;8.29;nan
49545;BME280;74870;42.636;23.302;2024-03-02T01:47:42;92530.63;;;8.27;nan
49545;BME280;74870;42.636;23.302;2024-03-02T01:50:08;92526.94;;;8.42;nan
49545;BME280;74870;42.636;23.302;2024-03-02T01:52:36;92519.00;;;8.47;nan
49545;BME280;74870;42.636;23.302;2024-03-02T01:55:02;92517.34;;;8.37;nan
49545;BME280;74870;42.636;23.302;2024-03-02T01:57:29;92518.97;;;8.20;nan
49545;BME280;74870;42.636;23.302;2024-03-02T01:59:54;92517.16;;;8.34;nan
49545;BME280;74870;42.636;23.302;2024-03-02T02:02:20;92532.94;;;8.42;nan
49545;BME280;74870;42.636;23.302;2024-03-02T02:04:45;92541.69;;;8.38;nan
49545;BME280;74870;42.636;23.302;2024-03-02T02:07:11;92527.81;;;8.51;nan
49545;BME280;74870;42.636;23.302;2024-03-02T02:09:36;92525.00;;;8.48;nan
49545;BME280;74870;42.636;23.302;2024-03-02T02:12:02;92528.00;;;8.55;nan
49545;BME280;74870;42.636;23.302;2024-03-02T02:14:29;92528.78;;;8.55;nan
49545;BME280;74870;42.636;23.302;2024-03-02T02:16:55;92518.41;;;8.50;nan
49545;BME280;74870;42.636;23.302;2024-03-02T02:19:20;92526.94;;;8.56;nan
49545;BME280;74870;42.636;23.302;2024-03-02T02:21:45;92523.53;;;8.55;nan
49545;BME280;74870;42.636;23.302;2024-03-02T02:24:11;92514.63;;;8.42;nan
49545;BME280;74870;42.636;23.302;2024-03-02T02:26:38;92504.16;;;8.29;nan
49545;BME280;74870;42.636;23.302;2024-03-02T02:29:03;92519.97;;;8.37;nan
49545;BME280;74870;42.636;23.302;2024-03-02T02:31:41;92523.84;;;8.40;nan
49545;BME280;74870;42.636;23.302;2024-03-02T02:34:07;92499.34;;;8.36;nan
49545;BME280;74870;42.636;23.302;2024-03-02T02:36:37;92497.59;;;8.31;nan
49545;BME280;74870;42.636;23.302;2024-03-02T02:39:04;92505.25;;;8.41;nan
49545;BME280;74870;42.636;23.302;2024-03-02T02:41:32;92523.06;;;8.53;nan
49545;BME280;74870;42.636;23.302;2024-03-02T02:43:57;92521.53;;;8.52;nan
49545;BME280;74870;42.636;23.302;2024-03-02T02:46:22;92528.94;;;8.59;nan
49545;BME280;74870;42.636;23.302;2024-03-02T02:48:48;92515.38;;;8.57;nan
49545;BME280;74870;42.636;23.302;2024-03-02T02:51:13;92513.75;;;8.61;nan
49545;BME280;74870;42.636;23.302;2024-03-02T02:53:39;92522.66;;;8.60;nan
49545;BME280;74870;42.636;23.302;2024-03-02T02:56:07;92520.53;;;8.62;nan
49545;BME280;74870;42.636;23.302;2024-03-02T02:58:33;92528.69;;;8.60;nan
49545;BME280;74870;42.636;23.302;2024-03-02T03:00:58;92529.25;;;8.57;nan
49545;BME280;74870;42.636;23.302;2024-03-02T03:03:24;92523.47;;;8.60;nan
49545;BME280;74870;42.636;23.302;2024-03-02T03:05:49;92526.13;;;8.69;nan
49545;BME280;74870;42.636;23.302;2024-03-02T03:08:15;92544.28;;;8.52;nan
49545;BME280;74870;42.636;23.302;2024-03-02T03:10:44;92524.22;;;8.61;nan
49545;BME280;74870;42.636;23.302;2024-03-02T03:13:10;92524.41;;;8.64;nan
49545;BME280;74870;42.636;23.302;2024-03-02T03:15:35;92525.97;;;8.65;nan
49545;BME280;74870;42.636;23.302;2024-03-02T03:18:04;92528.75;;;8.69;nan
49545;BME280;74870;42.636;23.302;2024-03-02T03:20:30;92509.97;;;8.53;nan
49545;BME280;74870;42.636;23.302;2024-03-02T03:22:56;92524.81;;;8.58;nan
49545;BME280;74870;42.636;23.302;2024-03-02T03:25:22;92519.88;;;8.56;nan
49545;BME280;74870;42.636;23.302;2024-03-02T03:27:47;92521.59;;;8.47;nan
49545;BME280;74870;42.636;23.302;2024-03-02T03:30:13;92525.09;;;8.42;nan
49545;BME280;74870;42.636;23.302;2024-03-02T03:32:38;92521.78;;;8.51;nan
49545;BME280;74870;42.636;23.302;2024-03-02T03:35:04;92527.63;;;8.48;nan
49545;BME280;74870;42.636;23.302;2024-03-02T03:37:30;92532.00;;;8.52;nan
49545;BME280;74870;42.636;23.302;2024-03-02T03:40:02;92525.97;;;8.65;nan
49545;BME280;74870;42.636;23.302;2024-03-02T03:42:28;92533.31;;;8.77;nan
49545;BME280;74870;42.636;23.302;2024-03-02T03:44:54;92533.13;;;8.73;nan
49545;BME280;74870;42.636;23.302;2024-03-02T03:47:19;92522.66;;;8.73;nan
49545;BME280;74870;42.636;23.302;2024-03-02T03:49:45;92533.03;;;8.65;nan
49545;BME280;74870;42.636;23.302;2024-03-02T03:52:11;92526.16;;;8.55;nan
49545;BME280;74870;42.636;23.302;2024-03-02T03:54:36;92527.50;;;8.53;nan
49545;BME280;74870;42.636;23.302;2024-03-02T03:57:03;92519.66;;;8.53;nan
49545;BME280;74870;42.636;23.302;2024-03-02T03:59:29;92528.00;;;8.55;nan
49545;BME280;74870;42.636;23.302;2024-03-02T04:01:54;92530.34;;;8.56;nan
49545;BME280;74870;42.636;23.302;2024-03-02T04:04:19;92528.75;;;8.69;nan
49545;BME280;74870;42.636;23.302;2024-03-02T04:06:45;92523.13;;;8.75;nan
49545;BME280;74870;42.636;23.302;2024-03-02T04:09:10;92530.41;;;8.78;nan
49545;BME280;74870;42.636;23.302;2024-03-02T04:11:36;92528.75;;;8.82;nan
49545;BME280;74870;42.636;23.302;2024-03-02T04:14:01;92527.88;;;8.73;nan
49545;BME280;74870;42.636;23.302;2024-03-02T04:16:27;92529.84;;;8.68;nan
49545;BME280;74870;42.636;23.302;2024-03-02T04:18:54;92523.53;;;8.55;nan
49545;BME280;74870;42.636;23.302;2024-03-02T04:21:19;92508.44;;;8.52;nan
49545;BME280;74870;42.636;23.302;2024-03-02T04:23:45;92521.97;;;8.68;nan
49545;BME280;74870;42.636;23.302;2024-03-02T04:26:10;92522.84;;;8.63;nan
49545;BME280;74870;42.636;23.302;2024-03-02T04:28:36;92528.47;;;8.57;nan
49545;BME280;74870;42.636;23.302;2024-03-02T04:31:01;92532.25;;;8.51;nan
49545;BME280;74870;42.636;23.302;2024-03-02T04:33:26;92531.22;;;8.38;nan
49545;BME280;74870;42.636;23.302;2024-03-02T04:35:52;92536.34;;;8.29;nan
49545;BME280;74870;42.636;23.302;2024-03-02T04:38:17;92528.38;;;8.34;nan
49545;BME280;74870;42.636;23.302;2024-03-02T04:40:43;92530.03;;;8.30;nan
49545;BME280;74870;42.636;23.302;2024-03-02T04:43:08;92532.84;;;8.34;nan
49545;BME280;74870;42.636;23.302;2024-03-02T04:45:35;92528.53;;;8.24;nan
49545;BME280;74870;42.636;23.302;2024-03-02T04:48:01;92528.78;;;8.28;nan
49545;BME280;74870;42.636;23.302;2024-03-02T04:50:26;92538.16;;;8.29;nan
49545;BME280;74870;42.636;23.302;2024-03-02T04:52:52;92543.47;;;8.24;nan
49545;BME280;74870;42.636;23.302;2024-03-02T04:55:17;92536.69;;;8.23;nan
49545;BME280;74870;42.636;23.302;2024-03-02T04:58:02;92547.34;;;8.26;nan
49545;BME280;74870;42.636;23.302;2024-03-02T05:00:28;92540.66;;;8.20;nan
49545;BME280;74870;42.636;23.302;2024-03-02T05:02:53;92540.00;;;8.28;nan
49545;BME280;74870;42.636;23.302;2024-03-02T05:05:18;92540.09;;;8.37;nan
49545;BME280;74870;42.636;23.302;2024-03-02T05:07:44;92534.78;;;8.42;nan
49545;BME280;74870;42.636;23.302;2024-03-02T05:10:10;92537.00;;;8.35;nan
49545;BME280;74870;42.636;23.302;2024-03-02T05:12:36;92542.72;;;8.51;nan
49545;BME280;74870;42.636;23.302;2024-03-02T05:15:13;92533.53;;;8.39;nan
49545;BME280;74870;42.636;23.302;2024-03-02T05:17:40;92542.81;;;8.59;nan
49545;BME280;74870;42.636;23.302;2024-03-02T05:20:06;92453.38;;;7.89;nan
49545;BME280;74870;42.636;23.302;2024-03-02T05:22:36;92553.38;;;8.68;nan
49545;BME280;74870;42.636;23.302;2024-03-02T05:25:02;92549.03;;;8.63;nan
49545;BME280;74870;42.636;23.302;2024-03-02T05:27:27;92558.72;;;8.63;nan
49545;BME280;74870;42.636;23.302;2024-03-02T05:29:53;92536.34;;;8.43;nan
49545;BME280;74870;42.636;23.302;2024-03-02T05:32:18;92561.53;;;8.53;nan
49545;BME280;74870;42.636;23.302;2024-03-02T05:34:44;92542.16;;;8.40;nan
49545;BME280;74870;42.636;23.302;2024-03-02T05:37:09;92569.97;;;8.50;nan
49545;BME280;74870;42.636;23.302;2024-03-02T05:39:34;92572.78;;;8.53;nan
49545;BME280;74870;42.636;23.302;2024-03-02T05:42:00;92574.59;;;8.53;nan
49545;BME280;74870;42.636;23.302;2024-03-02T05:44:25;92574.34;;;8.54;nan
49545;BME280;74870;42.636;23.302;2024-03-02T05:46:51;92576.06;;;8.59;nan
49545;BME280;74870;42.636;23.302;2024-03-02T05:49:16;92581.28;;;8.59;nan
49545;BME280;74870;42.636;23.302;2024-03-02T05:51:41;92580.25;;;8.60;nan
49545;BME280;74870;42.636;23.302;2024-03-02T05:54:07;92580.53;;;8.58;nan
49545;BME280;74870;42.636;23.302;2024-03-02T05:56:32;92581.47;;;8.48;nan
49545;BME280;74870;42.636;23.302;2024-03-02T05:58:58;92582.06;;;8.45;nan
49545;BME280;74870;42.636;23.302;2024-03-02T06:01:47;92584.50;;;8.56;nan
49545;BME280;74870;42.636;23.302;2024-03-02T06:04:15;92583.78;;;8.36;nan
49545;BME280;74870;42.636;23.302;2024-03-02T06:06:41;92574.22;;;8.32;nan
49545;BME280;74870;42.636;23.302;2024-03-02T06:09:07;92584.50;;;8.42;nan
49545;BME280;74870;42.636;23.302;2024-03-02T06:11:38;92576.91;;;8.40;nan
49545;BME280;74870;42.636;23.302;2024-03-02T06:14:08;92574.97;;;8.32;nan
49545;BME280;74870;42.636;23.302;2024-03-02T06:16:34;92578.56;;;8.36;nan
49545;BME280;74870;42.636;23.302;2024-03-02T06:19:00;92582.97;;;8.22;nan
49545;BME280;74870;42.636;23.302;2024-03-02T06:21:29;92559.41;;;8.09;nan
49545;BME280;74870;42.636;23.302;2024-03-02T06:23:54;92587.22;;;8.18;nan
49545;BME280;74870;42.636;23.302;2024-03-02T06:26:20;92583.75;;;8.23;nan
49545;BME280;74870;42.636;23.302;2024-03-02T06:28:45;92590.47;;;8.29;nan
49545;BME280;74870;42.636;23.302;2024-03-02T06:31:11;92589.34;;;8.16;nan
49545;BME280;74870;42.636;23.302;2024-03-02T06:33:37;92595.47;;;8.12;nan
49545;BME280;74870;42.636;23.302;2024-03-02T06:36:03;92591.09;;;8.07;nan
49545;BME280;74870;42.636;23.302;2024-03-02T06:38:28;92596.88;;;8.04;nan
49545;BME280;74870;42.636;23.302;2024-03-02T06:40:54;92580.97;;;7.87;nan
49545;BME280;74870;42.636;23.302;2024-03-02T06:43:20;92599.56;;;7.86;nan
49545;BME280;74870;42.636;23.302;2024-03-02T06:45:50;92597.63;;;7.91;nan
49545;BME280;74870;42.636;23.302;2024-03-02T06:48:16;92600.06;;;7.88;nan
49545;BME280;74870;42.636;23.302;2024-03-02T06:50:46;92598.44;;;7.73;nan
49545;BME280;74870;42.636;23.302;2024-03-02T06:53:11;92603.03;;;7.81;nan
49545;BME280;74870;42.636;23.302;2024-03-02T06:55:37;92612.63;;;7.86;nan
49545;BME280;74870;42.636;23.302;2024-03-02T06:58:02;92608.25;;;7.81;nan
49545;BME280;74870;42.636;23.302;2024-03-02T07:00:28;92611.84;;;7.85;nan
49545;BME280;74870;42.636;23.302;2024-03-02T07:02:54;92590.28;;;7.61;nan
49545;BME280;74870;42.636;23.302;2024-03-02T07:05:19;92612.41;;;7.82;nan
49545;BME280;74870;42.636;23.302;2024-03-02T07:07:46;92613.13;;;7.88;nan
49545;BME280;74870;42.636;23.302;2024-03-02T07:10:11;92608.88;;;7.92;nan
49545;BME280;74870;42.636;23.302;2024-03-02T07:12:37;92608.00;;;7.96;nan
49545;BME280;74870;42.636;23.302;2024-03-02T07:15:03;92611.81;;;8.04;nan
49545;BME280;74870;42.636;23.302;2024-03-02T07:17:29;92621.19;;;8.05;nan
49545;BME280;74870;42.636;23.302;2024-03-02T07:19:55;92590.63;;;7.87;nan
49545;BME280;74870;42.636;23.302;2024-03-02T07:22:21;92595.03;;;7.91;nan
49545;BME280;74870;42.636;23.302;2024-03-02T07:24:46;92623.03;;;8.04;nan
49545;BME280;74870;42.636;23.302;2024-03-02T07:27:12;92618.69;;;8.13;nan
49545;BME280;74870;42.636;23.302;2024-03-02T07:29:39;92617.06;;;8.17;nan
49545;BME280;74870;42.636;23.302;2024-03-02T07:32:05;92626.91;;;8.25;nan
49545;BME280;74870;42.636;23.302;2024-03-02T07:34:30;92621.84;;;8.29;nan
49545;BME280;74870;42.636;23.302;2024-03-02T07:36:56;92617.97;;;8.26;nan
49545;BME280;74870;42.636;23.302;2024-03-02T07:39:22;92605.94;;;8.12;nan
49545;BME280;74870;42.636;23.302;2024-03-02T07:41:47;92610.91;;;8.27;nan
49545;BME280;74870;42.636;23.302;2024-03-02T07:44:13;92625.81;;;8.26;nan
49545;BME280;74870;42.636;23.302;2024-03-02T07:46:44;92631.84;;;8.27;nan
49545;BME280;74870;42.636;23.302;2024-03-02T07:49:11;92612.69;;;8.13;nan
49545;BME280;74870;42.636;23.302;2024-03-02T07:51:37;92636.56;;;8.25;nan
49545;BME280;74870;42.636;23.302;2024-03-02T07:54:02;92627.53;;;8.17;nan
49545;BME280;74870;42.636;23.302;2024-03-02T07:56:28;92615.84;;;8.28;nan
49545;BME280;74870;42.636;23.302;2024-03-02T07:58:53;92624.47;;;8.29;nan
49545;BME280;74870;42.636;23.302;2024-03-02T08:01:19;92620.81;;;8.30;nan
49545;BME280;74870;42.636;23.302;2024-03-02T08:03:45;92634.66;;;8.30;nan
49545;BME280;74870;42.636;23.302;2024-03-02T08:06:16;92637.09;;;8.40;nan
49545;BME280;74870;42.636;23.302;2024-03-02T08:08:41;92648.13;;;8.37;nan
49545;BME280;74870;42.636;23.302;2024-03-02T08:11:06;92641.63;;;8.35;nan
49545;BME280;74870;42.636;23.302;2024-03-02T08:13:32;92631.38;;;8.38;nan
49545;BME280;74870;42.636;23.302;2024-03-02T08:15:57;92651.75;;;8.23;nan
49545;BME280;74870;42.636;23.302;2024-03-02T08:18:23;92640.09;;;8.15;nan
49545;BME280;74870;42.636;23.302;2024-03-02T08:20:49;92651.97;;;8.26;nan
49545;BME280;74870;42.636;23.302;2024-03-02T08:23:14;92643.94;;;8.36;nan
49545;BME280;74870;42.636;23.302;2024-03-02T08:25:39;92646.19;;;8.29;nan
49545;BME280;74870;42.636;23.302;2024-03-02T08:28:05;92645.53;;;8.19;nan
49545;BME280;74870;42.636;23.302;2024-03-02T08:30:31;92649.28;;;8.31;nan
49545;BME280;74870;42.636;23.302;2024-03-02T08:32:56;92642.41;;;8.35;nan
49545;BME280;74870;42.636;23.302;2024-03-02T08:35:22;92650.94;;;8.41;nan
49545;BME280;74870;42.636;23.302;2024-03-02T08:37:48;92620.31;;;8.28;nan
49545;BME280;74870;42.636;23.302;2024-03-02T08:40:14;92624.63;;;8.19;nan
49545;BME280;74870;42.636;23.302;2024-03-02T08:42:39;92641.75;;;8.43;nan
49545;BME280;74870;42.636;23.302;2024-03-02T08:45:06;92643.50;;;8.48;nan
49545;BME280;74870;42.636;23.302;2024-03-02T08:47:32;92646.31;;;8.52;nan
49545;BME280;74870;42.636;23.302;2024-03-02T08:49:58;92644.50;;;8.66;nan
49545;BME280;74870;42.636;23.302;2024-03-02T08:52:23;92644.31;;;8.76;nan
49545;BME280;74870;42.636;23.302;2024-03-02T08:54:48;92642.06;;;8.69;nan
49545;BME280;74870;42.636;23.302;2024-03-02T08:57:14;92641.88;;;8.66;nan
49545;BME280;74870;42.636;23.302;2024-03-02T08:59:39;92641.78;;;8.71;nan
49545;BME280;74870;42.636;23.302;2024-03-02T09:02:05;92636.47;;;8.76;nan
49545;BME280;74870;42.636;23.302;2024-03-02T09:04:30;92623.56;;;8.79;nan
49545;BME280;74870;42.636;23.302;2024-03-02T09:06:56;92647.63;;;9.08;nan
49545;BME280;74870;42.636;23.302;2024-03-02T09:09:21;92657.78;;;9.10;nan
49545;BME280;74870;42.636;23.302;2024-03-02T09:11:47;92651.78;;;8.96;nan
49545;BME280;74870;42.636;23.302;2024-03-02T09:14:12;92647.63;;;9.08;nan
49545;BME280;74870;42.636;23.302;2024-03-02T09:16:40;92648.59;;;9.12;nan
49545;BME280;74870;42.636;23.302;2024-03-02T09:19:05;92651.19;;;9.12;nan
49545;BME280;74870;42.636;23.302;2024-03-02T09:21:30;92657.03;;;8.96;nan
49545;BME280;74870;42.636;23.302;2024-03-02T09:23:56;92663.78;;;9.24;nan
49545;BME280;74870;42.636;23.302;2024-03-02T09:26:22;92670.78;;;9.28;nan
49545;BME280;74870;42.636;23.302;2024-03-02T09:28:50;92616.97;;;9.09;nan
49545;BME280;74870;42.636;23.302;2024-03-02T09:31:15;92663.88;;;9.46;nan
49545;BME280;74870;42.636;23.302;2024-03-02T09:33:41;92659.13;;;9.35;nan
49545;BME280;74870;42.636;23.302;2024-03-02T09:36:17;92657.09;;;9.18;nan
49545;BME280;74870;42.636;23.302;2024-03-02T09:38:42;92630.44;;;9.02;nan
49545;BME280;74870;42.636;23.302;2024-03-02T09:41:08;92666.13;;;9.25;nan
49545;BME280;74870;42.636;23.302;2024-03-02T09:43:33;92662.81;;;9.20;nan
49545;BME280;74870;42.636;23.302;2024-03-02T09:45:59;92667.75;;;9.21;nan
49545;BME280;74870;42.636;23.302;2024-03-02T09:48:24;92663.41;;;9.30;nan
49545;BME280;74870;42.636;23.302;2024-03-02T09:50:50;92666.22;;;9.34;nan
49545;BME280;74870;42.636;23.302;2024-03-02T09:53:15;92661.34;;;9.27;nan
49545;BME280;74870;42.636;23.302;2024-03-02T09:55:46;92662.94;;;9.28;nan
49545;BME280;74870;42.636;23.302;2024-03-02T09:58:11;92666.31;;;9.43;nan
49545;BME280;74870;42.636;23.302;2024-03-02T10:00:37;92668.31;;;9.46;nan
49545;BME280;74870;42.636;23.302;2024-03-02T10:03:03;92667.66;;;9.40;nan
49545;BME280;74870;42.636;23.302;2024-03-02T10:05:30;92657.00;;;9.37;nan
49545;BME280;74870;42.636;23.302;2024-03-02T10:07:59;92669.97;;;9.42;nan
49545;BME280;74870;42.636;23.302;2024-03-02T10:10:34;92640.53;;;9.22;nan
49545;BME280;74870;42.636;23.302;2024-03-02T10:13:05;92664.47;;;9.43;nan
49545;BME280;74870;42.636;23.302;2024-03-02T10:15:30;92663.97;;;9.41;nan
49545;BME280;74870;42.636;23.302;2024-03-02T10:17:56;92662.22;;;9.50;nan
49545;BME280;74870;42.636;23.302;2024-03-02T10:20:27;92639.44;;;9.37;nan
49545;BME280;74870;42.636;23.302;2024-03-02T10:23:13;92662.13;;;9.55;nan
49545;BME280;74870;42.636;23.302;2024-03-02T10:25:40;92618.13;;;9.16;nan
49545;BME280;74870;42.636;23.302;2024-03-02T10:28:06;92666.13;;;9.39;nan
49545;BME280;74870;42.636;23.302;2024-03-02T10:30:35;92665.84;;;9.27;nan
49545;BME280;74870;42.636;23.302;2024-03-02T10:33:05;92661.66;;;9.26;nan
49545;BME280;74870;42.636;23.302;2024-03-02T10:35:31;92648.09;;;9.10;nan
49545;BME280;74870;42.636;23.302;2024-03-02T10:37:59;92657.78;;;9.23;nan
49545;BME280;74870;42.636;23.302;2024-03-02T10:40:26;92661.00;;;9.20;nan
49545;BME280;74870;42.636;23.302;2024-03-02T10:42:52;92656.72;;;9.24;nan
49545;BME280;74870;42.636;23.302;2024-03-02T10:45:20;92658.94;;;9.31;nan
49545;BME280;74870;42.636;23.302;2024-03-02T10:47:47;92637.72;;;9.19;nan
49545;BME280;74870;42.636;23.302;2024-03-02T10:50:13;92638.97;;;9.21;nan
49545;BME280;74870;42.636;23.302;2024-03-02T10:52:40;92647.97;;;9.15;nan
49545;BME280;74870;42.636;23.302;2024-03-02T10:55:06;92646.75;;;9.13;nan
49545;BME280;74870;42.636;23.302;2024-03-02T11:00:12;92648.88;;;8.97;nan
49545;BME280;74870;42.636;23.302;2024-03-02T11:02:56;92647.69;;;9.03;nan
49545;BME280;74870;42.636;23.302;2024-03-02T11:05:28;92638.97;;;9.08;nan
49545;BME280;74870;42.636;23.302;2024-03-02T11:08:00;92643.81;;;9.01;nan
49545;BME280;74870;42.636;23.302;2024-03-02T11:10:27;92646.25;;;8.84;nan
49545;BME280;74870;42.636;23.302;2024-03-02T11:12:56;92641.09;;;8.79;nan
49545;BME280;74870;42.636;23.302;2024-03-02T11:15:27;92646.63;;;8.77;nan
49545;BME280;74870;42.636;23.302;2024-03-02T11:17:52;92641.59;;;8.81;nan
49545;BME280;74870;42.636;23.302;2024-03-02T11:20:18;92637.31;;;8.85;nan
49545;BME280;74870;42.636;23.302;2024-03-02T11:22:45;92639.00;;;8.94;nan
49545;BME280;74870;42.636;23.302;2024-03-02T11:25:27;92644.50;;;8.93;nan
49545;BME280;74870;42.636;23.302;2024-03-02T11:33:00;92639.16;;;9.11;nan
49545;BME280;74870;42.636;23.302;2024-03-02T11:35:26;92619.75;;;8.99;nan
49545;BME280;74870;42.636;23.302;2024-03-02T11:37:54;92632.94;;;9.07;nan
49545;BME280;74870;42.636;23.302;2024-03-02T11:40:23;92633.72;;;8.81;nan
49545;BME280;74870;42.636;23.302;2024-03-02T11:42:49;92634.31;;;8.91;nan
49545;BME280;74870;42.636;23.302;2024-03-02T11:45:22;92641.91;;;9.06;nan
49545;BME280;74870;42.636;23.302;2024-03-02T11:47:51;92636.34;;;9.08;nan
49545;BME280;74870;42.636;23.302;2024-03-02T11:50:33;92642.38;;;9.08;nan
49545;BME280;74870;42.636;23.302;2024-03-02T11:53:00;92630.66;;;8.92;nan
49545;BME280;74870;42.636;23.302;2024-03-02T11:55:26;92640.63;;;8.90;nan
49545;BME280;74870;42.636;23.302;2024-03-02T11:57:54;92623.38;;;8.89;nan
49545;BME280;74870;42.636;23.302;2024-03-02T12:00:20;92637.44;;;9.07;nan
49545;BME280;74870;42.636;23.302;2024-03-02T12:02:47;92635.00;;;9.10;nan
49545;BME280;74870;42.636;23.302;2024-03-02T12:05:19;92628.69;;;9.11;nan
49545;BME280;74870;42.636;23.302;2024-03-02T12:07:45;92620.91;;;9.20;nan
49545;BME280;74870;42.636;23.302;2024-03-02T12:10:12;92613.38;;;9.18;nan
49545;BME280;74870;42.636;23.302;2024-03-02T12:12:37;92637.56;;;9.38;nan
49545;BME280;74870;42.636;23.302;2024-03-02T12:15:03;92642.59;;;9.48;nan
49545;BME280;74870;42.636;23.302;2024-03-02T12:17:29;92639.31;;;9.42;nan
49545;BME280;74870;42.636;23.302;2024-03-02T12:19:54;92638.94;;;9.49;nan
49545;BME280;74870;42.636;23.302;2024-03-02T12:22:21;92643.91;;;9.37;nan
49545;BME280;74870;42.636;23.302;2024-03-02T12:24:46;92640.81;;;9.21;nan
49545;BME280;74870;42.636;23.302;2024-03-02T12:27:13;92640.91;;;9.16;nan
49545;BME280;74870;42.636;23.302;2024-03-02T12:29:40;92644.13;;;8.99;nan
49545;BME280;74870;42.636;23.302;2024-03-02T12:32:06;92634.59;;;9.03;nan
49545;BME280;74870;42.636;23.302;2024-03-02T12:34:32;92631.78;;;9.13;nan
49545;BME280;74870;42.636;23.302;2024-03-02T12:36:57;92642.56;;;9.12;nan
49545;BME280;74870;42.636;23.302;2024-03-02T12:39:23;92642.47;;;9.17;nan
49545;BME280;74870;42.636;23.302;2024-03-02T12:41:49;92637.41;;;9.20;nan
49545;BME280;74870;42.636;23.302;2024-03-02T12:44:19;92638.69;;;9.09;nan
49545;BME280;74870;42.636;23.302;2024-03-02T12:46:46;92633.94;;;9.25;nan
49545;BME280;74870;42.636;23.302;2024-03-02T12:49:13;92645.06;;;9.30;nan
49545;BME280;74870;42.636;23.302;2024-03-02T12:51:41;92641.09;;;9.19;nan
49545;BME280;74870;42.636;23.302;2024-03-02T12:54:10;92616.88;;;9.00;nan
49545;BME280;74870;42.636;23.302;2024-03-02T12:56:37;92643.41;;;9.35;nan
49545;BME280;74870;42.636;23.302;2024-03-02T12:59:03;92642.03;;;9.51;nan
49545;BME280;74870;42.636;23.302;2024-03-02T13:01:28;92646.16;;;9.65;nan
49545;BME280;74870;42.636;23.302;2024-03-02T13:03:54;92643.91;;;9.72;nan
49545;BME280;74870;42.636;23.302;2024-03-02T13:06:21;92639.75;;;9.58;nan
49545;BME280;74870;42.636;23.302;2024-03-02T13:08:46;92640.25;;;9.60;nan
49545;BME280;74870;42.636;23.302;2024-03-02T13:11:13;92644.53;;;9.56;nan
49545;BME280;74870;42.636;23.302;2024-03-02T13:13:39;92646.38;;;9.55;nan
49545;BME280;74870;42.636;23.302;2024-03-02T13:16:11;92632.13;;;9.48;nan
49545;BME280;74870;42.636;23.302;2024-03-02T13:18:40;92649.06;;;9.64;nan
49545;BME280;74870;42.636;23.302;2024-03-02T13:21:07;92650.81;;;9.68;nan
49545;BME280;74870;42.636;23.302;2024-03-02T13:23:32;92647.88;;;9.70;nan
49545;BME280;74870;42.636;23.302;2024-03-02T13:25:58;92629.63;;;9.43;nan
49545;BME280;74870;42.636;23.302;2024-03-02T13:28:27;92652.03;;;9.49;nan
49545;BME280;74870;42.636;23.302;2024-03-02T13:30:52;92648.25;;;9.41;nan